FDX9900 KOAK-EBLG
Flight info
| Callsign | FDX9900 |
|---|---|
| Flight time | N/A |
| Altitude | 32000 |
| Route | OAK DCT ORRCA DCT FMG J32 LLC DCT ROOHZ Q138 PARZZ DCT KU90Q DCT KU18W DCT JARLY DCT 53N095W 55N090W 57N085W 59N080W 60N075W DCT FEDDY/M084F320 DCT KETLA DCT 63N050W 63N040W 62N030W 60N020W DCT ERAKA/N0485F320 DCT ETSOM DCT MAKUX DCT SOSIM L15 BIG Q70 KOK |
| Aircraft | B77L/H-SDE1E2E3FGHIJ2J3J4J5M1RWXY/LB1D1 |
Departure
| Time | 2026-05-05 06:40 |
|---|---|
| Airport | San Francisco Bay Oakland International Airport (KOAK) |
Arrival
| Time | N/A |
|---|---|
| Airport | Liège Airport (EBLG) |
| Time | Latitude | Longitude | Altitude | Speed | Heading |
|---|---|---|---|---|---|
| 2026-05-05 06:27 | 37.71689 | -122.21952 | 21 ft | 0 kts | 228° |
| 2026-05-05 06:31 | 37.71689 | -122.21953 | 21 ft | 1 kts | 229° |
| 2026-05-05 06:32 | 37.71671 | -122.21979 | 21 ft | 7 kts | 229° |
| 2026-05-05 06:32 | 37.71624 | -122.22045 | 18 ft | 13 kts | 227° |
| 2026-05-05 06:32 | 37.71567 | -122.22095 | 17 ft | 4 kts | 146° |
| 2026-05-05 06:32 | 37.71554 | -122.22058 | 17 ft | 5 kts | 113° |
| 2026-05-05 06:33 | 37.71542 | -122.22021 | 17 ft | 5 kts | 112° |
| 2026-05-05 06:33 | 37.71525 | -122.21988 | 17 ft | 5 kts | 132° |
| 2026-05-05 06:33 | 37.71509 | -122.21971 | 17 ft | 1 kts | 143° |
| 2026-05-05 06:33 | 37.71504 | -122.21966 | 17 ft | 1 kts | 145° |
| 2026-05-05 06:34 | 37.71499 | -122.21962 | 19 ft | 1 kts | 145° |
| 2026-05-05 06:34 | 37.71493 | -122.21960 | 19 ft | 1 kts | 162° |
| 2026-05-05 06:34 | 37.71467 | -122.21992 | 17 ft | 12 kts | 236° |
| 2026-05-05 06:34 | 37.71388 | -122.22121 | 17 ft | 22 kts | 228° |
| 2026-05-05 06:35 | 37.71281 | -122.22252 | 18 ft | 22 kts | 222° |
| 2026-05-05 06:35 | 37.71167 | -122.22374 | 16 ft | 21 kts | 218° |
| 2026-05-05 06:35 | 37.71036 | -122.22391 | 16 ft | 21 kts | 136° |
| 2026-05-05 06:35 | 37.70948 | -122.22238 | 16 ft | 21 kts | 126° |
| 2026-05-05 06:36 | 37.70865 | -122.22081 | 16 ft | 21 kts | 123° |
| 2026-05-05 06:36 | 37.70755 | -122.21954 | 17 ft | 21 kts | 137° |
| 2026-05-05 06:36 | 37.70657 | -122.21816 | 16 ft | 21 kts | 124° |
| 2026-05-05 06:36 | 37.70562 | -122.21667 | 16 ft | 21 kts | 130° |
| 2026-05-05 06:37 | 37.70470 | -122.21521 | 16 ft | 21 kts | 127° |
| 2026-05-05 06:37 | 37.70361 | -122.21393 | 16 ft | 21 kts | 150° |
| 2026-05-05 06:37 | 37.70223 | -122.21368 | 17 ft | 21 kts | 213° |
| 2026-05-05 06:37 | 37.70213 | -122.21529 | 15 ft | 20 kts | 310° |
| 2026-05-05 06:38 | 37.70230 | -122.21551 | 15 ft | 0 kts | 314° |
| 2026-05-05 06:39 | 37.70253 | -122.21582 | 14 ft | 28 kts | 313° |
| 2026-05-05 06:40 | 37.70558 | -122.22039 | 17 ft | 106 kts | 310° |
| 2026-05-05 06:40 | 37.71191 | -122.22993 | 16 ft | 175 kts | 311° |
| 2026-05-05 06:40 | 37.72093 | -122.24255 | 244 ft | 200 kts | 315° |
| 2026-05-05 06:40 | 37.73057 | -122.25498 | 751 ft | 203 kts | 306° |
| 2026-05-05 06:41 | 37.73470 | -122.27213 | 917 ft | 212 kts | 270° |
| 2026-05-05 06:41 | 37.73519 | -122.29109 | 1303 ft | 220 kts | 276° |
| 2026-05-05 06:41 | 37.73725 | -122.31036 | 1841 ft | 223 kts | 279° |
| 2026-05-05 06:41 | 37.74010 | -122.32990 | 2285 ft | 234 kts | 281° |
| 2026-05-05 06:42 | 37.74443 | -122.35018 | 2586 ft | 244 kts | 299° |
| 2026-05-05 06:42 | 37.75685 | -122.36495 | 3007 ft | 254 kts | 337° |
| 2026-05-05 06:42 | 37.77436 | -122.36871 | 3508 ft | 260 kts | 355° |
| 2026-05-05 06:42 | 37.79270 | -122.36973 | 4015 ft | 267 kts | 355° |
| 2026-05-05 06:43 | 37.81132 | -122.37063 | 4592 ft | 269 kts | 3° |
| 2026-05-05 06:43 | 37.82914 | -122.36313 | 4999 ft | 276 kts | 38° |
| 2026-05-05 06:43 | 37.84196 | -122.34532 | 5544 ft | 275 kts | 52° |
| 2026-05-05 06:43 | 37.85378 | -122.32601 | 6125 ft | 277 kts | 51° |
| 2026-05-05 06:44 | 37.86557 | -122.30693 | 6848 ft | 275 kts | 51° |
| 2026-05-05 06:44 | 37.87751 | -122.28782 | 7392 ft | 278 kts | 50° |
| 2026-05-05 06:44 | 37.88958 | -122.26868 | 8000 ft | 280 kts | 50° |
| 2026-05-05 06:44 | 37.90185 | -122.24940 | 8470 ft | 287 kts | 50° |
| 2026-05-05 06:45 | 37.91453 | -122.22962 | 9026 ft | 291 kts | 50° |
| 2026-05-05 06:45 | 37.92755 | -122.20940 | 9623 ft | 295 kts | 50° |
| 2026-05-05 06:45 | 37.94039 | -122.18953 | 10214 ft | 296 kts | 50° |
| 2026-05-05 06:45 | 37.95341 | -122.16944 | 10854 ft | 295 kts | 49° |
| 2026-05-05 06:46 | 37.96643 | -122.14937 | 11474 ft | 294 kts | 49° |
| 2026-05-05 06:46 | 37.97943 | -122.12937 | 12100 ft | 294 kts | 49° |
| 2026-05-05 06:46 | 37.99244 | -122.10936 | 12685 ft | 294 kts | 49° |
| 2026-05-05 06:46 | 38.00545 | -122.08933 | 13310 ft | 293 kts | 49° |
| 2026-05-05 06:47 | 38.01840 | -122.06940 | 13905 ft | 293 kts | 48° |
| 2026-05-05 06:47 | 38.03140 | -122.04940 | 14406 ft | 294 kts | 48° |
| 2026-05-05 06:47 | 38.04441 | -122.02938 | 14908 ft | 294 kts | 49° |
| 2026-05-05 06:47 | 38.05744 | -122.00932 | 15420 ft | 295 kts | 49° |
| 2026-05-05 06:48 | 38.07049 | -121.98922 | 15930 ft | 295 kts | 49° |
| 2026-05-05 06:48 | 38.08351 | -121.96915 | 16436 ft | 295 kts | 49° |
| 2026-05-05 06:48 | 38.09657 | -121.94900 | 16939 ft | 296 kts | 49° |
| 2026-05-05 06:48 | 38.10963 | -121.92884 | 17450 ft | 296 kts | 50° |
| 2026-05-05 06:49 | 38.12271 | -121.90864 | 17974 ft | 296 kts | 50° |
| 2026-05-05 06:49 | 38.13580 | -121.88842 | 18454 ft | 296 kts | 50° |
| 2026-05-05 06:49 | 38.14894 | -121.86809 | 18825 ft | 300 kts | 50° |
| 2026-05-05 06:49 | 38.16240 | -121.84728 | 19018 ft | 309 kts | 50° |
| 2026-05-05 06:50 | 38.17619 | -121.82593 | 19311 ft | 315 kts | 50° |
| 2026-05-05 06:50 | 38.19015 | -121.80430 | 19698 ft | 317 kts | 50° |
| 2026-05-05 06:50 | 38.20417 | -121.78257 | 20154 ft | 319 kts | 50° |
| 2026-05-05 06:50 | 38.21828 | -121.76067 | 20536 ft | 322 kts | 51° |
| 2026-05-05 06:51 | 38.23259 | -121.73845 | 20861 ft | 327 kts | 51° |
| 2026-05-05 06:51 | 38.24707 | -121.71596 | 21229 ft | 330 kts | 51° |
| 2026-05-05 06:51 | 38.26169 | -121.69323 | 21605 ft | 333 kts | 51° |
| 2026-05-05 06:51 | 38.27643 | -121.67030 | 21988 ft | 336 kts | 51° |
| 2026-05-05 06:52 | 38.29130 | -121.64715 | 22365 ft | 340 kts | 51° |
| 2026-05-05 06:52 | 38.30630 | -121.62378 | 22771 ft | 343 kts | 51° |
| 2026-05-05 06:52 | 38.32145 | -121.60016 | 23138 ft | 346 kts | 51° |
| 2026-05-05 06:52 | 38.33673 | -121.57631 | 23500 ft | 349 kts | 51° |
| 2026-05-05 06:53 | 38.34695 | -121.56037 | 23732 ft | 352 kts | 51° |
| 2026-05-05 06:53 | 38.36245 | -121.53615 | 24057 ft | 354 kts | 51° |
| 2026-05-05 06:53 | 38.37805 | -121.51176 | 24394 ft | 356 kts | 51° |
| 2026-05-05 06:53 | 38.39375 | -121.48720 | 24727 ft | 358 kts | 51° |
| 2026-05-05 06:54 | 38.40954 | -121.46248 | 25043 ft | 361 kts | 51° |
| 2026-05-05 06:54 | 38.42546 | -121.43754 | 25373 ft | 363 kts | 51° |
| 2026-05-05 06:54 | 38.44148 | -121.41242 | 25616 ft | 369 kts | 51° |
| 2026-05-05 06:54 | 38.45788 | -121.38667 | 25653 ft | 379 kts | 51° |
| 2026-05-05 06:55 | 38.47473 | -121.36021 | 25710 ft | 389 kts | 51° |
| 2026-05-05 06:55 | 38.49196 | -121.33311 | 25839 ft | 397 kts | 51° |
| 2026-05-05 06:55 | 38.50944 | -121.30561 | 26072 ft | 402 kts | 51° |
| 2026-05-05 06:55 | 38.52708 | -121.27784 | 26442 ft | 403 kts | 51° |
| 2026-05-05 06:56 | 38.54473 | -121.25003 | 26842 ft | 403 kts | 51° |
| 2026-05-05 06:56 | 38.56243 | -121.22212 | 27205 ft | 405 kts | 51° |
| 2026-05-05 06:56 | 38.58024 | -121.19401 | 27533 ft | 408 kts | 51° |
| 2026-05-05 06:56 | 38.59811 | -121.16578 | 27850 ft | 410 kts | 51° |
| 2026-05-05 06:57 | 38.61611 | -121.13731 | 28186 ft | 412 kts | 51° |
| 2026-05-05 06:57 | 38.63413 | -121.10879 | 28522 ft | 414 kts | 51° |
| 2026-05-05 06:57 | 38.65230 | -121.08001 | 28847 ft | 416 kts | 51° |
| 2026-05-05 06:57 | 38.67052 | -121.05113 | 29157 ft | 418 kts | 51° |
| 2026-05-05 06:58 | 38.68884 | -121.02205 | 29475 ft | 420 kts | 51° |
| 2026-05-05 06:58 | 38.70722 | -120.99286 | 29774 ft | 422 kts | 51° |
| 2026-05-05 06:58 | 38.72568 | -120.96350 | 30077 ft | 424 kts | 51° |
| 2026-05-05 06:58 | 38.74425 | -120.93395 | 30351 ft | 426 kts | 51° |
| 2026-05-05 06:59 | 38.76282 | -120.90438 | 30629 ft | 427 kts | 51° |
| 2026-05-05 06:59 | 38.78141 | -120.87474 | 30920 ft | 427 kts | 51° |
| 2026-05-05 06:59 | 38.80001 | -120.84505 | 31183 ft | 428 kts | 51° |
| 2026-05-05 06:59 | 38.81862 | -120.81531 | 31442 ft | 428 kts | 51° |
| 2026-05-05 07:00 | 38.83704 | -120.78587 | 31681 ft | 429 kts | 51° |
| 2026-05-05 07:00 | 38.85573 | -120.75596 | 31785 ft | 433 kts | 51° |
| 2026-05-05 07:00 | 38.87468 | -120.72562 | 31829 ft | 437 kts | 51° |
| 2026-05-05 07:00 | 38.89371 | -120.69510 | 31948 ft | 439 kts | 51° |
| 2026-05-05 07:01 | 38.91280 | -120.66447 | 31981 ft | 440 kts | 51° |
| 2026-05-05 07:01 | 38.95079 | -120.60342 | 32017 ft | 436 kts | 51° |
| 2026-05-05 07:02 | 38.98852 | -120.54266 | 32013 ft | 434 kts | 51° |
| 2026-05-05 07:02 | 39.02627 | -120.48174 | 32018 ft | 438 kts | 51° |
| 2026-05-05 07:03 | 39.06430 | -120.42028 | 32003 ft | 440 kts | 51° |
| 2026-05-05 07:03 | 39.10246 | -120.35848 | 31995 ft | 441 kts | 52° |
| 2026-05-05 07:04 | 39.14050 | -120.29677 | 32002 ft | 439 kts | 52° |
| 2026-05-05 07:04 | 39.17832 | -120.23528 | 32015 ft | 436 kts | 52° |
| 2026-05-05 07:05 | 39.21585 | -120.17415 | 32009 ft | 434 kts | 52° |
| 2026-05-05 07:05 | 39.25304 | -120.11345 | 32021 ft | 434 kts | 52° |
| 2026-05-05 07:06 | 39.29068 | -120.05189 | 32023 ft | 434 kts | 52° |
| 2026-05-05 07:06 | 39.32732 | -119.99187 | 32009 ft | 435 kts | 52° |
| 2026-05-05 07:07 | 39.36503 | -119.92997 | 31982 ft | 436 kts | 52° |
| 2026-05-05 07:07 | 39.40232 | -119.86863 | 31965 ft | 437 kts | 52° |
| 2026-05-05 07:08 | 39.43990 | -119.80670 | 31972 ft | 438 kts | 52° |
| 2026-05-05 07:08 | 39.47746 | -119.74467 | 31968 ft | 438 kts | 52° |
| 2026-05-05 07:09 | 39.51496 | -119.68262 | 31976 ft | 438 kts | 52° |
| 2026-05-05 07:09 | 39.55198 | -119.62000 | 31963 ft | 437 kts | 54° |
| 2026-05-05 07:10 | 39.58752 | -119.55612 | 31938 ft | 437 kts | 55° |
| 2026-05-05 07:10 | 39.62285 | -119.49211 | 31916 ft | 436 kts | 54° |
| 2026-05-05 07:11 | 39.65824 | -119.42828 | 31895 ft | 436 kts | 54° |
| 2026-05-05 07:11 | 39.69367 | -119.36452 | 31864 ft | 436 kts | 54° |
| 2026-05-05 07:12 | 39.72912 | -119.30063 | 31855 ft | 436 kts | 54° |
| 2026-05-05 07:12 | 39.76449 | -119.23676 | 31858 ft | 435 kts | 54° |
| 2026-05-05 07:13 | 39.79978 | -119.17287 | 31859 ft | 435 kts | 54° |
| 2026-05-05 07:13 | 39.83506 | -119.10891 | 31847 ft | 435 kts | 54° |
| 2026-05-05 07:14 | 39.87026 | -119.04494 | 31844 ft | 435 kts | 55° |
| 2026-05-05 07:14 | 39.90544 | -118.98088 | 31843 ft | 434 kts | 54° |
| 2026-05-05 07:15 | 39.94056 | -118.91679 | 31863 ft | 434 kts | 55° |
| 2026-05-05 07:15 | 39.97539 | -118.85311 | 31874 ft | 434 kts | 55° |
| 2026-05-05 07:16 | 40.01042 | -118.78892 | 31889 ft | 434 kts | 54° |
| 2026-05-05 07:16 | 40.04540 | -118.72469 | 31913 ft | 434 kts | 54° |
| 2026-05-05 07:17 | 40.08038 | -118.66033 | 31913 ft | 435 kts | 55° |
| 2026-05-05 07:17 | 40.11532 | -118.59592 | 31915 ft | 435 kts | 55° |
| 2026-05-05 07:18 | 40.14931 | -118.53071 | 31921 ft | 435 kts | 57° |
| 2026-05-05 07:18 | 40.18156 | -118.46377 | 31902 ft | 435 kts | 58° |
| 2026-05-05 07:19 | 40.21367 | -118.39673 | 31884 ft | 435 kts | 58° |
| 2026-05-05 07:19 | 40.24602 | -118.32967 | 31865 ft | 436 kts | 57° |
| 2026-05-05 07:20 | 40.27847 | -118.26263 | 31849 ft | 436 kts | 57° |
| 2026-05-05 07:20 | 40.31093 | -118.19553 | 31834 ft | 437 kts | 57° |
| 2026-05-05 07:21 | 40.34343 | -118.12820 | 31835 ft | 437 kts | 57° |
| 2026-05-05 07:21 | 40.37587 | -118.06083 | 31831 ft | 437 kts | 58° |
| 2026-05-05 07:22 | 40.40831 | -117.99329 | 31818 ft | 437 kts | 58° |
| 2026-05-05 07:22 | 40.44069 | -117.92574 | 31818 ft | 437 kts | 58° |
| 2026-05-05 07:23 | 40.47303 | -117.85812 | 31814 ft | 437 kts | 58° |
| 2026-05-05 07:23 | 40.50536 | -117.79039 | 31808 ft | 437 kts | 58° |
| 2026-05-05 07:24 | 40.53763 | -117.72263 | 31815 ft | 438 kts | 58° |
| 2026-05-05 07:24 | 40.56970 | -117.65514 | 31804 ft | 438 kts | 58° |
| 2026-05-05 07:25 | 40.60200 | -117.58701 | 31799 ft | 439 kts | 58° |
| 2026-05-05 07:25 | 40.63452 | -117.51828 | 31808 ft | 440 kts | 58° |
| 2026-05-05 07:26 | 40.66660 | -117.45031 | 31795 ft | 441 kts | 58° |
| 2026-05-05 07:26 | 40.69896 | -117.38161 | 31792 ft | 441 kts | 58° |
| 2026-05-05 07:27 | 40.73132 | -117.31276 | 31789 ft | 442 kts | 58° |
| 2026-05-05 07:27 | 40.76368 | -117.24374 | 31794 ft | 443 kts | 58° |
| 2026-05-05 07:28 | 40.79607 | -117.17452 | 31819 ft | 444 kts | 58° |
| 2026-05-05 07:28 | 40.82848 | -117.10509 | 31821 ft | 444 kts | 58° |
| 2026-05-05 07:29 | 40.86086 | -117.03555 | 31820 ft | 445 kts | 58° |
| 2026-05-05 07:29 | 40.89325 | -116.96585 | 31816 ft | 445 kts | 58° |
| 2026-05-05 07:30 | 40.92559 | -116.89609 | 31805 ft | 445 kts | 58° |
| 2026-05-05 07:30 | 40.97407 | -116.79123 | 31794 ft | 446 kts | 58° |
| 2026-05-05 07:31 | 41.00640 | -116.72109 | 31784 ft | 446 kts | 58° |
| 2026-05-05 07:31 | 41.03868 | -116.65089 | 31791 ft | 447 kts | 58° |
| 2026-05-05 07:32 | 41.07098 | -116.58049 | 31794 ft | 447 kts | 58° |
| 2026-05-05 07:32 | 41.10327 | -116.50996 | 31795 ft | 448 kts | 58° |
| 2026-05-05 07:33 | 41.13558 | -116.43921 | 31790 ft | 449 kts | 58° |
| 2026-05-05 07:33 | 41.16793 | -116.36820 | 31790 ft | 450 kts | 58° |
| 2026-05-05 07:34 | 41.20031 | -116.29697 | 31795 ft | 451 kts | 58° |
| 2026-05-05 07:34 | 41.23254 | -116.22540 | 31789 ft | 452 kts | 60° |
| 2026-05-05 07:35 | 41.25953 | -116.14986 | 31790 ft | 452 kts | 61° |
| 2026-05-05 07:35 | 41.29397 | -116.08008 | 31799 ft | 452 kts | 51° |
| 2026-05-05 07:36 | 41.33544 | -116.01774 | 31793 ft | 453 kts | 48° |
| 2026-05-05 07:36 | 41.37781 | -115.95542 | 31783 ft | 455 kts | 48° |
| 2026-05-05 07:37 | 41.42016 | -115.89266 | 31785 ft | 456 kts | 48° |
| 2026-05-05 07:37 | 41.46255 | -115.82945 | 31783 ft | 458 kts | 48° |
| 2026-05-05 07:38 | 41.50496 | -115.76599 | 31774 ft | 459 kts | 48° |
| 2026-05-05 07:38 | 41.54741 | -115.70232 | 31771 ft | 460 kts | 48° |
| 2026-05-05 07:39 | 41.58991 | -115.63846 | 31770 ft | 461 kts | 48° |
| 2026-05-05 07:39 | 41.63254 | -115.57427 | 31769 ft | 462 kts | 48° |
| 2026-05-05 07:40 | 41.67516 | -115.50995 | 31761 ft | 462 kts | 48° |
| 2026-05-05 07:40 | 41.71777 | -115.44551 | 31763 ft | 463 kts | 48° |
| 2026-05-05 07:41 | 41.75321 | -115.39181 | 31753 ft | 463 kts | 48° |
| 2026-05-05 07:41 | 41.79587 | -115.32705 | 31745 ft | 464 kts | 48° |
| 2026-05-05 07:42 | 41.83855 | -115.26209 | 31749 ft | 464 kts | 48° |
| 2026-05-05 07:42 | 41.88117 | -115.19709 | 31736 ft | 464 kts | 48° |
| 2026-05-05 07:43 | 41.92381 | -115.13192 | 31735 ft | 464 kts | 48° |
| 2026-05-05 07:43 | 41.96636 | -115.06674 | 31725 ft | 464 kts | 48° |
| 2026-05-05 07:44 | 42.00899 | -115.00130 | 31711 ft | 465 kts | 48° |
| 2026-05-05 07:44 | 42.05154 | -114.93583 | 31710 ft | 465 kts | 47° |
| 2026-05-05 07:45 | 42.09415 | -114.87014 | 31708 ft | 466 kts | 47° |
| 2026-05-05 07:45 | 42.13672 | -114.80435 | 31698 ft | 467 kts | 47° |
| 2026-05-05 07:46 | 42.17935 | -114.73833 | 31697 ft | 467 kts | 47° |
| 2026-05-05 07:46 | 42.22175 | -114.67250 | 31722 ft | 468 kts | 47° |
| 2026-05-05 07:47 | 42.26446 | -114.60606 | 31745 ft | 469 kts | 47° |
| 2026-05-05 07:47 | 42.30715 | -114.53948 | 31778 ft | 469 kts | 47° |
| 2026-05-05 07:48 | 42.34992 | -114.47264 | 31797 ft | 470 kts | 47° |
| 2026-05-05 07:48 | 42.39268 | -114.40567 | 31807 ft | 471 kts | 47° |
| 2026-05-05 07:49 | 42.43548 | -114.33848 | 31803 ft | 471 kts | 47° |
| 2026-05-05 07:49 | 42.47826 | -114.27115 | 31786 ft | 472 kts | 47° |
| 2026-05-05 07:50 | 42.52101 | -114.20373 | 31760 ft | 472 kts | 47° |
| 2026-05-05 07:50 | 42.56372 | -114.13622 | 31741 ft | 472 kts | 47° |
| 2026-05-05 07:51 | 42.60639 | -114.06861 | 31765 ft | 472 kts | 47° |
| 2026-05-05 07:51 | 42.64903 | -114.00089 | 31782 ft | 472 kts | 47° |
| 2026-05-05 07:52 | 42.69168 | -113.93300 | 31788 ft | 472 kts | 47° |
| 2026-05-05 07:52 | 42.73426 | -113.86508 | 31781 ft | 472 kts | 47° |
| 2026-05-05 07:53 | 42.77680 | -113.79705 | 31770 ft | 472 kts | 47° |
| 2026-05-05 07:53 | 42.81934 | -113.72887 | 31753 ft | 472 kts | 47° |
| 2026-05-05 07:54 | 42.86186 | -113.66055 | 31742 ft | 473 kts | 47° |
| 2026-05-05 07:54 | 42.90440 | -113.59205 | 31728 ft | 474 kts | 47° |
| 2026-05-05 07:55 | 42.94699 | -113.52330 | 31733 ft | 474 kts | 47° |
| 2026-05-05 07:55 | 42.98958 | -113.45440 | 31740 ft | 475 kts | 47° |
| 2026-05-05 07:56 | 43.03225 | -113.38520 | 31740 ft | 476 kts | 47° |
| 2026-05-05 07:56 | 43.07493 | -113.31583 | 31753 ft | 478 kts | 47° |
| 2026-05-05 07:57 | 43.11771 | -113.24613 | 31760 ft | 479 kts | 47° |
| 2026-05-05 07:57 | 43.16057 | -113.17612 | 31766 ft | 480 kts | 47° |
| 2026-05-05 07:58 | 43.20346 | -113.10589 | 31771 ft | 481 kts | 47° |
| 2026-05-05 07:58 | 43.24639 | -113.03543 | 31778 ft | 482 kts | 47° |
| 2026-05-05 07:59 | 43.28909 | -112.96519 | 31783 ft | 482 kts | 47° |
| 2026-05-05 07:59 | 43.33205 | -112.89435 | 31789 ft | 483 kts | 47° |
| 2026-05-05 08:00 | 43.37494 | -112.82343 | 31795 ft | 483 kts | 47° |
| 2026-05-05 08:00 | 43.41786 | -112.75228 | 31794 ft | 483 kts | 47° |
| 2026-05-05 08:01 | 43.46074 | -112.68103 | 31803 ft | 484 kts | 47° |
| 2026-05-05 08:01 | 43.50367 | -112.60956 | 31810 ft | 484 kts | 47° |
| 2026-05-05 08:02 | 43.54684 | -112.53749 | 31830 ft | 485 kts | 47° |
| 2026-05-05 08:02 | 43.58972 | -112.46572 | 31850 ft | 485 kts | 47° |
| 2026-05-05 08:03 | 43.63264 | -112.39372 | 31871 ft | 486 kts | 47° |
| 2026-05-05 08:03 | 43.67529 | -112.32198 | 31878 ft | 487 kts | 47° |
| 2026-05-05 08:04 | 43.71821 | -112.24961 | 31888 ft | 487 kts | 47° |
| 2026-05-05 08:04 | 43.76116 | -112.17701 | 31892 ft | 488 kts | 47° |
| 2026-05-05 08:05 | 43.80413 | -112.10419 | 31907 ft | 489 kts | 47° |
| 2026-05-05 08:05 | 43.84708 | -112.03122 | 31940 ft | 489 kts | 47° |
| 2026-05-05 08:06 | 43.89005 | -111.95804 | 31943 ft | 490 kts | 47° |
| 2026-05-05 08:06 | 43.93299 | -111.88472 | 31947 ft | 490 kts | 47° |
| 2026-05-05 08:07 | 43.97595 | -111.81118 | 31940 ft | 491 kts | 47° |
| 2026-05-05 08:07 | 44.01890 | -111.73747 | 31931 ft | 491 kts | 47° |
| 2026-05-05 08:08 | 44.06182 | -111.66362 | 31917 ft | 492 kts | 47° |
| 2026-05-05 08:08 | 44.10479 | -111.58949 | 31908 ft | 492 kts | 47° |
| 2026-05-05 08:09 | 44.14767 | -111.51533 | 31898 ft | 492 kts | 47° |
| 2026-05-05 08:09 | 44.19060 | -111.44090 | 31904 ft | 493 kts | 47° |
| 2026-05-05 08:10 | 44.23346 | -111.36640 | 31906 ft | 493 kts | 47° |
| 2026-05-05 08:10 | 44.27628 | -111.29176 | 31912 ft | 493 kts | 47° |
| 2026-05-05 08:11 | 44.31907 | -111.21698 | 31923 ft | 493 kts | 47° |
| 2026-05-05 08:11 | 44.36176 | -111.14219 | 31945 ft | 492 kts | 47° |
| 2026-05-05 08:12 | 44.40414 | -111.06774 | 31967 ft | 492 kts | 47° |
| 2026-05-05 08:12 | 44.44671 | -110.99278 | 31991 ft | 492 kts | 47° |
| 2026-05-05 08:13 | 44.48928 | -110.91763 | 31998 ft | 492 kts | 47° |
| 2026-05-05 08:13 | 44.53178 | -110.84238 | 32003 ft | 493 kts | 47° |
| 2026-05-05 08:14 | 44.57431 | -110.76689 | 31997 ft | 493 kts | 47° |
| 2026-05-05 08:14 | 44.61685 | -110.69119 | 31981 ft | 494 kts | 47° |
| 2026-05-05 08:15 | 44.65939 | -110.61527 | 31963 ft | 495 kts | 47° |
| 2026-05-05 08:15 | 44.70193 | -110.53917 | 31961 ft | 495 kts | 47° |
| 2026-05-05 08:16 | 44.74446 | -110.46287 | 31964 ft | 496 kts | 47° |
| 2026-05-05 08:16 | 44.78698 | -110.38640 | 31957 ft | 497 kts | 47° |
| 2026-05-05 08:17 | 44.82949 | -110.30972 | 31971 ft | 498 kts | 47° |
| 2026-05-05 08:17 | 44.87211 | -110.23264 | 31979 ft | 499 kts | 47° |
| 2026-05-05 08:18 | 44.91482 | -110.15515 | 31982 ft | 501 kts | 47° |
| 2026-05-05 08:18 | 44.95752 | -110.07752 | 32004 ft | 501 kts | 47° |
| 2026-05-05 08:19 | 45.00005 | -110.00000 | 32021 ft | 503 kts | 47° |
| 2026-05-05 08:19 | 45.04313 | -109.92196 | 32035 ft | 504 kts | 46° |
| 2026-05-05 08:20 | 45.08636 | -109.84401 | 32048 ft | 504 kts | 46° |
| 2026-05-05 08:20 | 45.12953 | -109.76591 | 32047 ft | 504 kts | 46° |
| 2026-05-05 08:21 | 45.17268 | -109.68751 | 32069 ft | 503 kts | 46° |
| 2026-05-05 08:21 | 45.21562 | -109.60919 | 32107 ft | 503 kts | 46° |
| 2026-05-05 08:22 | 45.25861 | -109.53059 | 32087 ft | 505 kts | 46° |
| 2026-05-05 08:22 | 45.30162 | -109.45175 | 32095 ft | 505 kts | 46° |
| 2026-05-05 08:23 | 45.34448 | -109.37294 | 32098 ft | 504 kts | 46° |
| 2026-05-05 08:23 | 45.38729 | -109.29402 | 32106 ft | 503 kts | 46° |
| 2026-05-05 08:24 | 45.42998 | -109.21509 | 32103 ft | 503 kts | 46° |
| 2026-05-05 08:24 | 45.47253 | -109.13619 | 32106 ft | 502 kts | 46° |
| 2026-05-05 08:25 | 45.51499 | -109.05728 | 32105 ft | 502 kts | 46° |
| 2026-05-05 08:25 | 45.55739 | -108.97823 | 32108 ft | 502 kts | 46° |
| 2026-05-05 08:26 | 45.59975 | -108.89907 | 32119 ft | 502 kts | 46° |
| 2026-05-05 08:26 | 45.64182 | -108.82021 | 32121 ft | 502 kts | 45° |
| 2026-05-05 08:27 | 45.68408 | -108.74075 | 32121 ft | 502 kts | 45° |
| 2026-05-05 08:27 | 45.72632 | -108.66111 | 32125 ft | 503 kts | 45° |
| 2026-05-05 08:28 | 45.76853 | -108.58131 | 32127 ft | 503 kts | 45° |
| 2026-05-05 08:28 | 45.81072 | -108.50133 | 32131 ft | 503 kts | 45° |
| 2026-05-05 08:29 | 45.85288 | -108.42117 | 32126 ft | 504 kts | 45° |
| 2026-05-05 08:30 | 45.90936 | -108.31344 | 32124 ft | 505 kts | 45° |
| 2026-05-05 08:30 | 45.95148 | -108.23282 | 32130 ft | 505 kts | 45° |
| 2026-05-05 08:31 | 45.99332 | -108.15251 | 32136 ft | 506 kts | 45° |
| 2026-05-05 08:31 | 46.03557 | -108.07118 | 32142 ft | 507 kts | 45° |
| 2026-05-05 08:32 | 46.07786 | -107.98953 | 32142 ft | 509 kts | 45° |
| 2026-05-05 08:32 | 46.12015 | -107.90765 | 32134 ft | 510 kts | 45° |
| 2026-05-05 08:33 | 46.16247 | -107.82547 | 32142 ft | 511 kts | 45° |
| 2026-05-05 08:33 | 46.20483 | -107.74296 | 32141 ft | 512 kts | 46° |
| 2026-05-05 08:34 | 46.24717 | -107.66025 | 32146 ft | 513 kts | 46° |
| 2026-05-05 08:34 | 46.28951 | -107.57730 | 32147 ft | 513 kts | 46° |
| 2026-05-05 08:35 | 46.33185 | -107.49408 | 32141 ft | 514 kts | 46° |
| 2026-05-05 08:35 | 46.37415 | -107.41071 | 32138 ft | 513 kts | 46° |
| 2026-05-05 08:36 | 46.41632 | -107.32734 | 32130 ft | 513 kts | 46° |
| 2026-05-05 08:36 | 46.45844 | -107.24382 | 32138 ft | 512 kts | 47° |
| 2026-05-05 08:37 | 46.50042 | -107.16035 | 32140 ft | 512 kts | 47° |
| 2026-05-05 08:37 | 46.54231 | -107.07680 | 32131 ft | 511 kts | 47° |
| 2026-05-05 08:38 | 46.58407 | -106.99325 | 32142 ft | 511 kts | 47° |
| 2026-05-05 08:38 | 46.62543 | -106.91025 | 32137 ft | 510 kts | 47° |
| 2026-05-05 08:39 | 46.66722 | -106.82615 | 32142 ft | 509 kts | 48° |
| 2026-05-05 08:39 | 46.70837 | -106.74308 | 32137 ft | 509 kts | 48° |
| 2026-05-05 08:40 | 46.74967 | -106.65948 | 32132 ft | 508 kts | 48° |
| 2026-05-05 08:40 | 46.79089 | -106.57576 | 32129 ft | 508 kts | 49° |
| 2026-05-05 08:41 | 46.83200 | -106.49203 | 32134 ft | 507 kts | 49° |
| 2026-05-05 08:41 | 46.87301 | -106.40825 | 32112 ft | 506 kts | 49° |
| 2026-05-05 08:42 | 46.91386 | -106.32454 | 32116 ft | 506 kts | 49° |
| 2026-05-05 08:42 | 46.95466 | -106.24069 | 32115 ft | 505 kts | 49° |
| 2026-05-05 08:43 | 46.99466 | -106.15805 | 32283 ft | 480 kts | 49° |
| 2026-05-05 08:43 | 47.03343 | -106.07789 | 32212 ft | 489 kts | 49° |
| 2026-05-05 08:44 | 47.07319 | -105.99570 | 32177 ft | 499 kts | 50° |
| 2026-05-05 08:44 | 47.11358 | -105.91178 | 32111 ft | 507 kts | 50° |
| 2026-05-05 08:45 | 47.15405 | -105.82724 | 32106 ft | 505 kts | 50° |
| 2026-05-05 08:45 | 47.19436 | -105.74280 | 32106 ft | 504 kts | 50° |
| 2026-05-05 08:46 | 47.23452 | -105.65849 | 32106 ft | 502 kts | 51° |
| 2026-05-05 08:46 | 47.27448 | -105.57433 | 32108 ft | 501 kts | 51° |
| 2026-05-05 08:47 | 47.31430 | -105.49025 | 32101 ft | 500 kts | 51° |
| 2026-05-05 08:47 | 47.35393 | -105.40629 | 32108 ft | 498 kts | 51° |
| 2026-05-05 08:48 | 47.39341 | -105.32241 | 32100 ft | 497 kts | 51° |
| 2026-05-05 08:48 | 47.43278 | -105.23851 | 32104 ft | 497 kts | 51° |
| 2026-05-05 08:49 | 47.47204 | -105.15456 | 32104 ft | 496 kts | 51° |
| 2026-05-05 08:49 | 47.51117 | -105.07066 | 32107 ft | 496 kts | 52° |
| 2026-05-05 08:50 | 47.55020 | -104.98669 | 32103 ft | 495 kts | 52° |
| 2026-05-05 08:50 | 47.58916 | -104.90265 | 32098 ft | 495 kts | 52° |
| 2026-05-05 08:51 | 47.62800 | -104.81858 | 32101 ft | 494 kts | 52° |
| 2026-05-05 08:51 | 47.66675 | -104.73445 | 32102 ft | 493 kts | 52° |
| 2026-05-05 08:52 | 47.70512 | -104.65090 | 32095 ft | 493 kts | 52° |
| 2026-05-05 08:52 | 47.74366 | -104.56672 | 32073 ft | 493 kts | 52° |
| 2026-05-05 08:53 | 47.78209 | -104.48253 | 32071 ft | 492 kts | 52° |
| 2026-05-05 08:53 | 47.82047 | -104.39816 | 32059 ft | 492 kts | 52° |
| 2026-05-05 08:54 | 47.85878 | -104.31371 | 32063 ft | 492 kts | 52° |
| 2026-05-05 08:54 | 47.89703 | -104.22913 | 32072 ft | 492 kts | 52° |
| 2026-05-05 08:55 | 47.93523 | -104.14436 | 32077 ft | 493 kts | 52° |
| 2026-05-05 08:55 | 47.97340 | -104.05943 | 32080 ft | 493 kts | 52° |
| 2026-05-05 08:56 | 48.01249 | -103.97554 | 32066 ft | 490 kts | 47° |
| 2026-05-05 08:56 | 48.05551 | -103.89656 | 32049 ft | 490 kts | 46° |
| 2026-05-05 08:57 | 48.09890 | -103.81793 | 32029 ft | 491 kts | 46° |
| 2026-05-05 08:57 | 48.14206 | -103.73883 | 32012 ft | 491 kts | 47° |
| 2026-05-05 08:58 | 48.18511 | -103.65922 | 32003 ft | 492 kts | 47° |
| 2026-05-05 08:58 | 48.22802 | -103.57948 | 32013 ft | 492 kts | 47° |
| 2026-05-05 08:59 | 48.27095 | -103.49950 | 32026 ft | 492 kts | 47° |
| 2026-05-05 08:59 | 48.31352 | -103.41998 | 32033 ft | 492 kts | 47° |
| 2026-05-05 09:00 | 48.35660 | -103.33927 | 32052 ft | 492 kts | 47° |
| 2026-05-05 09:00 | 48.39899 | -103.25962 | 32049 ft | 491 kts | 47° |
| 2026-05-05 09:01 | 48.44164 | -103.17924 | 32047 ft | 491 kts | 47° |
| 2026-05-05 09:01 | 48.48418 | -103.09884 | 32051 ft | 490 kts | 47° |
| 2026-05-05 09:02 | 48.52663 | -103.01835 | 32045 ft | 490 kts | 47° |
| 2026-05-05 09:02 | 48.56899 | -102.93780 | 32038 ft | 490 kts | 47° |
| 2026-05-05 09:03 | 48.61128 | -102.85715 | 32035 ft | 489 kts | 48° |
| 2026-05-05 09:03 | 48.65348 | -102.77642 | 32030 ft | 489 kts | 48° |
| 2026-05-05 09:04 | 48.69558 | -102.69563 | 32027 ft | 489 kts | 48° |
| 2026-05-05 09:04 | 48.73761 | -102.61475 | 32026 ft | 488 kts | 48° |
| 2026-05-05 09:05 | 48.77952 | -102.53383 | 32030 ft | 488 kts | 48° |
| 2026-05-05 09:05 | 48.82139 | -102.45276 | 32016 ft | 488 kts | 48° |
| 2026-05-05 09:06 | 48.86315 | -102.37165 | 32014 ft | 487 kts | 48° |
| 2026-05-05 09:06 | 48.90483 | -102.29044 | 32007 ft | 487 kts | 48° |
| 2026-05-05 09:07 | 48.94641 | -102.20918 | 32006 ft | 487 kts | 49° |
| 2026-05-05 09:07 | 48.98797 | -102.12775 | 32001 ft | 487 kts | 48° |
| 2026-05-05 09:08 | 49.03283 | -102.05144 | 32008 ft | 483 kts | 42° |
| 2026-05-05 09:08 | 49.08012 | -101.97886 | 32004 ft | 482 kts | 41° |
| 2026-05-05 09:09 | 49.12741 | -101.90615 | 32003 ft | 483 kts | 41° |
| 2026-05-05 09:09 | 49.17444 | -101.83300 | 32008 ft | 483 kts | 42° |
| 2026-05-05 09:10 | 49.22141 | -101.75937 | 32005 ft | 483 kts | 42° |
| 2026-05-05 09:10 | 49.26826 | -101.68565 | 32001 ft | 483 kts | 42° |
| 2026-05-05 09:11 | 49.31505 | -101.61184 | 32003 ft | 483 kts | 42° |
| 2026-05-05 09:11 | 49.36149 | -101.53837 | 32002 ft | 483 kts | 42° |
| 2026-05-05 09:12 | 49.40851 | -101.46379 | 32003 ft | 483 kts | 42° |
| 2026-05-05 09:12 | 49.45482 | -101.39013 | 32000 ft | 483 kts | 42° |
| 2026-05-05 09:13 | 49.50143 | -101.31577 | 31998 ft | 483 kts | 42° |
| 2026-05-05 09:13 | 49.54797 | -101.24130 | 31994 ft | 482 kts | 43° |
| 2026-05-05 09:14 | 49.59442 | -101.16675 | 31991 ft | 482 kts | 43° |
| 2026-05-05 09:14 | 49.64081 | -101.09209 | 31998 ft | 482 kts | 43° |
| 2026-05-05 09:15 | 49.68716 | -101.01726 | 31995 ft | 482 kts | 43° |
| 2026-05-05 09:15 | 49.72562 | -100.95501 | 31991 ft | 482 kts | 43° |
| 2026-05-05 09:16 | 49.77966 | -100.86728 | 31987 ft | 482 kts | 43° |
| 2026-05-05 09:16 | 49.81806 | -100.80476 | 31988 ft | 482 kts | 43° |
| 2026-05-05 09:17 | 49.86414 | -100.72953 | 31987 ft | 482 kts | 43° |
| 2026-05-05 09:17 | 49.91023 | -100.65405 | 31987 ft | 482 kts | 43° |
| 2026-05-05 09:18 | 49.95625 | -100.57847 | 31985 ft | 482 kts | 43° |
| 2026-05-05 09:18 | 50.00221 | -100.50276 | 31988 ft | 482 kts | 43° |
| 2026-05-05 09:19 | 50.04806 | -100.42700 | 31988 ft | 481 kts | 43° |
| 2026-05-05 09:19 | 50.09398 | -100.35092 | 31980 ft | 481 kts | 43° |
| 2026-05-05 09:20 | 50.13975 | -100.27484 | 31976 ft | 482 kts | 43° |
| 2026-05-05 09:20 | 50.18554 | -100.19850 | 31977 ft | 482 kts | 43° |
| 2026-05-05 09:21 | 50.23129 | -100.12200 | 31980 ft | 482 kts | 43° |
| 2026-05-05 09:21 | 50.27697 | -100.04537 | 31988 ft | 482 kts | 44° |
| 2026-05-05 09:22 | 50.32266 | -99.96852 | 31990 ft | 482 kts | 44° |
| 2026-05-05 09:22 | 50.36824 | -99.89160 | 31990 ft | 482 kts | 44° |
| 2026-05-05 09:23 | 50.41381 | -99.81448 | 31985 ft | 482 kts | 44° |
| 2026-05-05 09:23 | 50.45904 | -99.73768 | 31986 ft | 482 kts | 44° |
| 2026-05-05 09:24 | 50.50449 | -99.66030 | 31972 ft | 482 kts | 44° |
| 2026-05-05 09:24 | 50.55023 | -99.58215 | 31989 ft | 482 kts | 44° |
| 2026-05-05 09:25 | 50.59561 | -99.50440 | 31982 ft | 482 kts | 44° |
| 2026-05-05 09:25 | 50.64089 | -99.42658 | 31986 ft | 482 kts | 44° |
| 2026-05-05 09:26 | 50.68613 | -99.34859 | 31981 ft | 482 kts | 44° |
| 2026-05-05 09:26 | 50.73130 | -99.27050 | 31977 ft | 482 kts | 44° |
| 2026-05-05 09:27 | 50.77648 | -99.19212 | 31977 ft | 482 kts | 45° |
| 2026-05-05 09:27 | 50.82129 | -99.11416 | 31973 ft | 482 kts | 45° |
| 2026-05-05 09:28 | 50.86658 | -99.03512 | 31970 ft | 482 kts | 45° |
| 2026-05-05 09:28 | 50.91154 | -98.95640 | 31972 ft | 482 kts | 45° |
| 2026-05-05 09:29 | 50.95645 | -98.87752 | 31968 ft | 482 kts | 45° |
| 2026-05-05 09:29 | 51.00121 | -98.79867 | 31965 ft | 482 kts | 45° |
| 2026-05-05 09:30 | 51.04605 | -98.71942 | 31966 ft | 481 kts | 45° |
| 2026-05-05 09:30 | 51.09046 | -98.64070 | 31962 ft | 481 kts | 45° |
| 2026-05-05 09:31 | 51.13511 | -98.56130 | 31963 ft | 481 kts | 45° |
| 2026-05-05 09:31 | 51.17968 | -98.48179 | 31959 ft | 481 kts | 45° |
| 2026-05-05 09:32 | 51.22420 | -98.40212 | 31959 ft | 481 kts | 45° |
| 2026-05-05 09:32 | 51.26866 | -98.32232 | 31956 ft | 481 kts | 46° |
| 2026-05-05 09:33 | 51.31304 | -98.24240 | 31954 ft | 481 kts | 46° |
| 2026-05-05 09:33 | 51.35735 | -98.16234 | 31952 ft | 481 kts | 46° |
| 2026-05-05 09:34 | 51.40160 | -98.08215 | 31951 ft | 481 kts | 46° |
| 2026-05-05 09:34 | 51.44578 | -98.00184 | 31946 ft | 481 kts | 46° |
| 2026-05-05 09:35 | 51.48993 | -97.92131 | 31950 ft | 480 kts | 46° |
| 2026-05-05 09:35 | 51.55603 | -97.80029 | 31946 ft | 480 kts | 46° |
| 2026-05-05 09:36 | 51.59994 | -97.71956 | 31944 ft | 480 kts | 46° |
| 2026-05-05 09:36 | 51.64387 | -97.63854 | 31942 ft | 480 kts | 46° |
| 2026-05-05 09:37 | 51.68765 | -97.55753 | 31941 ft | 480 kts | 46° |
| 2026-05-05 09:37 | 51.73139 | -97.47635 | 31945 ft | 479 kts | 47° |
| 2026-05-05 09:38 | 51.77506 | -97.39503 | 31940 ft | 479 kts | 47° |
| 2026-05-05 09:38 | 51.81868 | -97.31353 | 31934 ft | 479 kts | 47° |
| 2026-05-05 09:39 | 51.86220 | -97.23198 | 31930 ft | 479 kts | 47° |
| 2026-05-05 09:39 | 51.90543 | -97.15069 | 31932 ft | 479 kts | 47° |
| 2026-05-05 09:40 | 51.94882 | -97.06883 | 31927 ft | 479 kts | 47° |
| 2026-05-05 09:40 | 51.99220 | -96.98673 | 31923 ft | 479 kts | 47° |
| 2026-05-05 09:41 | 52.03548 | -96.90456 | 31917 ft | 479 kts | 47° |
| 2026-05-05 09:41 | 52.07872 | -96.82221 | 31914 ft | 479 kts | 47° |
| 2026-05-05 09:42 | 52.12195 | -96.73960 | 31913 ft | 479 kts | 47° |
| 2026-05-05 09:42 | 52.16507 | -96.65691 | 31908 ft | 479 kts | 47° |
| 2026-05-05 09:43 | 52.20816 | -96.57401 | 31903 ft | 479 kts | 47° |
| 2026-05-05 09:43 | 52.25119 | -96.49098 | 31901 ft | 479 kts | 48° |
| 2026-05-05 09:44 | 52.29419 | -96.40771 | 31898 ft | 479 kts | 48° |
| 2026-05-05 09:44 | 52.33714 | -96.32427 | 31894 ft | 479 kts | 48° |
| 2026-05-05 09:45 | 52.38002 | -96.24069 | 31891 ft | 479 kts | 48° |
| 2026-05-05 09:45 | 52.42280 | -96.15702 | 31874 ft | 480 kts | 48° |
| 2026-05-05 09:46 | 52.46530 | -96.07363 | 31873 ft | 480 kts | 48° |
| 2026-05-05 09:46 | 52.51028 | -95.98507 | 31873 ft | 480 kts | 48° |
| 2026-05-05 09:47 | 52.54576 | -95.91499 | 31870 ft | 479 kts | 49° |
| 2026-05-05 09:47 | 52.59550 | -95.81641 | 31868 ft | 480 kts | 49° |
| 2026-05-05 09:48 | 52.63086 | -95.74610 | 31869 ft | 479 kts | 49° |
| 2026-05-05 09:48 | 52.67332 | -95.66141 | 31872 ft | 479 kts | 49° |
| 2026-05-05 09:49 | 52.72259 | -95.56277 | 31861 ft | 480 kts | 49° |
| 2026-05-05 09:49 | 52.75803 | -95.49159 | 31859 ft | 479 kts | 49° |
| 2026-05-05 09:50 | 52.80033 | -95.40637 | 31849 ft | 480 kts | 49° |
| 2026-05-05 09:50 | 52.84253 | -95.32105 | 31852 ft | 479 kts | 49° |
| 2026-05-05 09:51 | 52.88472 | -95.23545 | 31846 ft | 479 kts | 49° |
| 2026-05-05 09:51 | 52.92682 | -95.14975 | 31843 ft | 479 kts | 49° |
| 2026-05-05 09:52 | 52.96883 | -95.06392 | 31833 ft | 479 kts | 49° |
| 2026-05-05 09:52 | 53.01064 | -94.97786 | 31832 ft | 479 kts | 51° |
| 2026-05-05 09:53 | 53.05033 | -94.88881 | 31825 ft | 479 kts | 53° |
| 2026-05-05 09:53 | 53.08912 | -94.79855 | 31818 ft | 479 kts | 53° |
| 2026-05-05 09:54 | 53.12800 | -94.70844 | 31814 ft | 479 kts | 52° |
| 2026-05-05 09:54 | 53.16706 | -94.61845 | 31809 ft | 479 kts | 52° |
| 2026-05-05 09:55 | 53.20586 | -94.52907 | 31804 ft | 479 kts | 52° |
| 2026-05-05 09:55 | 53.24483 | -94.43896 | 31801 ft | 479 kts | 53° |
| 2026-05-05 09:56 | 53.28372 | -94.34868 | 31794 ft | 479 kts | 53° |
| 2026-05-05 09:56 | 53.32249 | -94.25834 | 31793 ft | 479 kts | 53° |
| 2026-05-05 09:57 | 53.36126 | -94.16768 | 31785 ft | 479 kts | 53° |
| 2026-05-05 09:57 | 53.39994 | -94.07689 | 31781 ft | 478 kts | 53° |
| 2026-05-05 09:58 | 53.43851 | -93.98603 | 31778 ft | 478 kts | 53° |
| 2026-05-05 09:58 | 53.47696 | -93.89515 | 31775 ft | 478 kts | 53° |
| 2026-05-05 09:59 | 53.51540 | -93.80394 | 31767 ft | 478 kts | 53° |
| 2026-05-05 09:59 | 53.55372 | -93.71270 | 31766 ft | 477 kts | 53° |
| 2026-05-05 10:00 | 53.59189 | -93.62150 | 31761 ft | 477 kts | 53° |
| 2026-05-05 10:00 | 53.63007 | -93.52994 | 31757 ft | 478 kts | 53° |
| 2026-05-05 10:01 | 53.66820 | -93.43814 | 31757 ft | 478 kts | 53° |
| 2026-05-05 10:01 | 53.70632 | -93.34604 | 31758 ft | 479 kts | 54° |
| 2026-05-05 10:02 | 53.74443 | -93.25360 | 31742 ft | 480 kts | 54° |
| 2026-05-05 10:02 | 53.78250 | -93.16095 | 31744 ft | 480 kts | 54° |
| 2026-05-05 10:03 | 53.82054 | -93.06803 | 31744 ft | 481 kts | 54° |
| 2026-05-05 10:03 | 53.85854 | -92.97485 | 31729 ft | 481 kts | 54° |
| 2026-05-05 10:04 | 53.89650 | -92.88146 | 31734 ft | 481 kts | 54° |
| 2026-05-05 10:04 | 53.93432 | -92.78802 | 31729 ft | 480 kts | 54° |
| 2026-05-05 10:05 | 53.97203 | -92.69449 | 31723 ft | 478 kts | 54° |
| 2026-05-05 10:05 | 54.00768 | -92.60578 | 31714 ft | 474 kts | 54° |
| 2026-05-05 10:06 | 54.04457 | -92.51364 | 31716 ft | 471 kts | 55° |
| 2026-05-05 10:06 | 54.08131 | -92.42157 | 31710 ft | 470 kts | 55° |
| 2026-05-05 10:07 | 54.11810 | -92.32901 | 31719 ft | 473 kts | 55° |
| 2026-05-05 10:07 | 54.15411 | -92.23808 | 31710 ft | 475 kts | 55° |
| 2026-05-05 10:08 | 54.19118 | -92.14411 | 31706 ft | 479 kts | 55° |
| 2026-05-05 10:08 | 54.22843 | -92.04935 | 31708 ft | 482 kts | 55° |
| 2026-05-05 10:09 | 54.26579 | -91.95391 | 31697 ft | 482 kts | 55° |
| 2026-05-05 10:09 | 54.30306 | -91.85836 | 31696 ft | 482 kts | 56° |
| 2026-05-05 10:10 | 54.34018 | -91.76280 | 31695 ft | 482 kts | 56° |
| 2026-05-05 10:10 | 54.37726 | -91.66701 | 31689 ft | 482 kts | 56° |
| 2026-05-05 10:11 | 54.41419 | -91.57121 | 31682 ft | 481 kts | 56° |
| 2026-05-05 10:11 | 54.45110 | -91.47513 | 31684 ft | 482 kts | 56° |
| 2026-05-05 10:12 | 54.48776 | -91.37932 | 31675 ft | 478 kts | 56° |
| 2026-05-05 10:12 | 54.52427 | -91.28352 | 31679 ft | 479 kts | 56° |
| 2026-05-05 10:13 | 54.56082 | -91.18724 | 31665 ft | 480 kts | 56° |
| 2026-05-05 10:13 | 54.59720 | -91.09105 | 31666 ft | 478 kts | 56° |
| 2026-05-05 10:14 | 54.63336 | -90.99505 | 31657 ft | 478 kts | 57° |
| 2026-05-05 10:14 | 54.66966 | -90.89831 | 31652 ft | 479 kts | 57° |
| 2026-05-05 10:15 | 54.70563 | -90.80210 | 31652 ft | 475 kts | 57° |
| 2026-05-05 10:15 | 54.74126 | -90.70640 | 31644 ft | 470 kts | 57° |
| 2026-05-05 10:16 | 54.77636 | -90.61176 | 31637 ft | 465 kts | 57° |
| 2026-05-05 10:16 | 54.81120 | -90.51746 | 31641 ft | 464 kts | 57° |
| 2026-05-05 10:17 | 54.84588 | -90.42323 | 31639 ft | 464 kts | 57° |
| 2026-05-05 10:17 | 54.88054 | -90.32871 | 31624 ft | 462 kts | 57° |
| 2026-05-05 10:18 | 54.91488 | -90.23469 | 31621 ft | 465 kts | 57° |
| 2026-05-05 10:18 | 54.94958 | -90.13930 | 31626 ft | 463 kts | 57° |
| 2026-05-05 10:19 | 54.98366 | -90.04532 | 31621 ft | 463 kts | 58° |
| 2026-05-05 10:19 | 55.01998 | -89.95289 | 31612 ft | 461 kts | 53° |
| 2026-05-05 10:20 | 55.05922 | -89.86444 | 31611 ft | 463 kts | 52° |
| 2026-05-05 10:20 | 55.09863 | -89.77570 | 31597 ft | 461 kts | 52° |
| 2026-05-05 10:21 | 55.13783 | -89.68648 | 31599 ft | 465 kts | 53° |
| 2026-05-05 10:21 | 55.17682 | -89.59710 | 31593 ft | 462 kts | 53° |
| 2026-05-05 10:22 | 55.21587 | -89.50713 | 31586 ft | 462 kts | 53° |
| 2026-05-05 10:22 | 55.25473 | -89.41729 | 31583 ft | 464 kts | 53° |
| 2026-05-05 10:23 | 55.29358 | -89.32717 | 31577 ft | 465 kts | 53° |
| 2026-05-05 10:23 | 55.33256 | -89.23640 | 31571 ft | 465 kts | 54° |
| 2026-05-05 10:24 | 55.37127 | -89.14595 | 31560 ft | 463 kts | 54° |
| 2026-05-05 10:24 | 55.41013 | -89.05480 | 31560 ft | 465 kts | 54° |
| 2026-05-05 10:25 | 55.44877 | -88.96382 | 31559 ft | 465 kts | 54° |
| 2026-05-05 10:25 | 55.48759 | -88.87210 | 31554 ft | 467 kts | 54° |
| 2026-05-05 10:26 | 55.52629 | -88.78031 | 31558 ft | 467 kts | 54° |
| 2026-05-05 10:26 | 55.56503 | -88.68806 | 31547 ft | 467 kts | 54° |
| 2026-05-05 10:27 | 55.60340 | -88.59637 | 31546 ft | 468 kts | 55° |
| 2026-05-05 10:27 | 55.64220 | -88.50332 | 31533 ft | 469 kts | 55° |
| 2026-05-05 10:28 | 55.68084 | -88.41027 | 31532 ft | 469 kts | 56° |
| 2026-05-05 10:28 | 55.71944 | -88.31693 | 31530 ft | 470 kts | 56° |
| 2026-05-05 10:29 | 55.75802 | -88.22330 | 31527 ft | 471 kts | 56° |
| 2026-05-05 10:29 | 55.79676 | -88.12899 | 31523 ft | 473 kts | 56° |
| 2026-05-05 10:30 | 55.82261 | -88.06581 | 31504 ft | 472 kts | 56° |